Fort Story, Virginia
Current Conditions -  °F | °C
As of 6:56 AM on Sunday 21 Dec 2014 (Local Time) from KNTU Reporting Station
Broken Clouds Broken Clouds  
Wind Chill: 29°   Ceiling: 7000
Heat Index: 33°   Visibility: 10mi
Dew Point: 29°   Wind: 5mph
Humidity: 85%   Direction: 30°NNE
Pressure: 30.3"   Gusts: NA
Location:  36.922°N, 76.0108°W
Report Text: KNTU 211156Z 03004KT 10SM BKN070 01/M02 A3030 RMK AO2 SLP264 T00061017 10006 21028 53006
Loading
Personal Weather Stations






























Interactive Weather Map New forecast layout! Learn more

10-Day Weather Forecast

Advertisements
Track Severe Weather on mobile